Time;durP1;ratioP1;P1;durP2;ratioP2;P2;SDS_P1;SDS_P2;PMS_P1;PMS_P2;Temp;Humidity;BMP_temperature;BMP_pressure;BME280_temperature;BME280_humidity;BME280_pressure;Samples;Min_cycle;Max_cycle;Signal;HPM_P1;HPM_P2
2023/09/14 00:01:58;;;;;;;7.95;1.85;;;;;;;;;;4951069;29;20047;-86
2023/09/14 00:04:25;;;;;;;4.00;1.17;;;;;;;;;;4949438;29;20083;-87
2023/09/14 00:06:55;;;;;;;4.97;1.63;;;;;;;;;;4970899;29;20047;-86
2023/09/14 00:09:36;;;;;;;8.60;1.40;;;;;;;;;;4960969;29;20407;-86
2023/09/14 00:19:12;;;;;;;8.85;1.35;;;;;;;;;;4928857;29;20082;-86
2023/09/14 00:21:42;;;;;;;10.02;1.52;;;;;;;;;;4928463;29;20052;-85
2023/09/14 00:24:10;;;;;;;9.90;1.75;;;;;;;;;;4915012;29;20052;-85
2023/09/14 00:26:38;;;;;;;5.22;1.55;;;;;;;;;;4913332;29;20063;-84
2023/09/14 00:29:06;;;;;;;10.55;1.80;;;;;;;;;;4913351;29;20055;-84
2023/09/14 00:35:11;;;;;;;4.15;1.65;;;;;;;;;;4930225;29;20190;-86
2023/09/14 00:37:38;;;;;;;6.28;1.55;;;;;;;;;;4913879;29;20056;-86
2023/09/14 00:40:10;;;;;;;5.88;1.50;;;;;;;;;;4928859;29;20139;-85
2023/09/14 00:42:48;;;;;;;5.22;1.20;;;;;;;;;;4920389;29;20052;-86
2023/09/14 00:48:37;;;;;;;6.45;1.70;;;;;;;;;;4968861;29;20038;-86
2023/09/14 00:51:05;;;;;;;8.73;1.52;;;;;;;;;;4954288;29;20065;-85
2023/09/14 00:53:32;;;;;;;7.63;1.85;;;;;;;;;;4968479;29;20050;-86
2023/09/14 00:56:03;;;;;;;5.22;1.20;;;;;;;;;;4951867;29;20086;-86
2023/09/14 00:58:31;;;;;;;7.57;1.50;;;;;;;;;;4952608;29;20090;-85
2023/09/14 01:00:58;;;;;;;5.10;1.80;;;;;;;;;;4967888;29;20075;-86
2023/09/14 01:03:26;;;;;;;4.10;1.30;;;;;;;;;;4951859;29;20070;-86
2023/09/14 01:05:54;;;;;;;6.53;1.63;;;;;;;;;;4951770;29;20150;-85
2023/09/14 01:11:45;;;;;;;6.88;1.48;;;;;;;;;;4975839;29;20026;-85
2023/09/14 01:14:24;;;;;;;6.03;1.52;;;;;;;;;;4969481;29;20051;-86
2023/09/14 01:16:55;;;;;;;6.28;1.67;;;;;;;;;;4951886;29;20055;-86
2023/09/14 01:19:41;;;;;;;7.22;1.40;;;;;;;;;;4951904;29;20055;-85
2023/09/14 01:28:53;;;;;;;9.07;1.77;;;;;;;;;;4968292;29;20054;-86
2023/09/14 01:31:22;;;;;;;4.05;1.20;;;;;;;;;;4951941;29;20090;-85
2023/09/14 01:33:51;;;;;;;9.30;2.17;;;;;;;;;;4952141;29;20071;-86
2023/09/14 01:36:23;;;;;;;4.55;1.30;;;;;;;;;;4968179;29;20490;-86
2023/09/14 01:42:18;;;;;;;8.40;1.65;;;;;;;;;;4967289;29;20078;-86
2023/09/14 01:44:48;;;;;;;13.10;1.80;;;;;;;;;;4951462;29;20077;-85
2023/09/14 01:47:48;;;;;;;5.15;1.83;;;;;;;;;;4950775;29;20057;-86
2023/09/14 01:50:16;;;;;;;8.57;1.77;;;;;;;;;;4951146;29;20062;-85
2023/09/14 01:52:45;;;;;;;7.65;1.48;;;;;;;;;;4951239;29;20079;-85
2023/09/14 01:55:13;;;;;;;6.00;1.80;;;;;;;;;;4953427;29;20051;-85
2023/09/14 02:04:24;;;;;;;5.70;1.50;;;;;;;;;;4967442;29;20033;-85
2023/09/14 02:06:53;;;;;;;4.63;1.85;;;;;;;;;;4967149;29;20055;-86
2023/09/14 02:09:21;;;;;;;5.13;1.88;;;;;;;;;;4952862;29;20062;-86
2023/09/14 02:11:48;;;;;;;8.07;1.83;;;;;;;;;;4967623;29;20337;-86
2023/09/14 02:14:15;;;;;;;5.28;1.63;;;;;;;;;;4949357;29;20059;-87
2023/09/14 02:23:31;;;;;;;7.38;1.60;;;;;;;;;;4968487;29;20054;-85
2023/09/14 02:25:59;;;;;;;9.27;2.22;;;;;;;;;;4952238;29;20442;-86
2023/09/14 02:28:28;;;;;;;6.63;1.60;;;;;;;;;;4968185;29;20137;-85
2023/09/14 02:30:56;;;;;;;4.90;1.25;;;;;;;;;;4969002;28;20082;-86
2023/09/14 02:33:24;;;;;;;4.50;1.63;;;;;;;;;;4966758;29;20078;-86
2023/09/14 02:35:52;;;;;;;6.00;1.73;;;;;;;;;;4949838;29;20054;-86
2023/09/14 02:41:43;;;;;;;8.18;1.83;;;;;;;;;;4965016;29;20030;-85
2023/09/14 02:44:10;;;;;;;7.75;1.70;;;;;;;;;;4966103;29;20146;-86
2023/09/14 02:46:38;;;;;;;7.95;1.65;;;;;;;;;;4949235;29;20051;-85
2023/09/14 02:52:26;;;;;;;8.77;1.92;;;;;;;;;;4964088;29;20078;-86
2023/09/14 02:54:53;;;;;;;7.22;1.67;;;;;;;;;;4965742;29;20618;-85
2023/09/14 02:57:21;;;;;;;6.30;1.35;;;;;;;;;;4949195;29;20083;-85
2023/09/14 02:59:54;;;;;;;5.15;1.50;;;;;;;;;;4948320;29;20079;-87
2023/09/14 03:05:54;;;;;;;5.78;1.50;;;;;;;;;;4965260;29;20054;-86
2023/09/14 03:08:24;;;;;;;7.13;1.85;;;;;;;;;;4965693;29;20051;-86
2023/09/14 03:10:54;;;;;;;6.53;1.50;;;;;;;;;;4964013;29;20399;-86
2023/09/14 03:13:22;;;;;;;3.70;1.33;;;;;;;;;;4948216;29;20455;-86
2023/09/14 03:15:55;;;;;;;7.15;1.52;;;;;;;;;;4967199;29;20087;-86
2023/09/14 03:18:22;;;;;;;6.03;1.80;;;;;;;;;;4952987;29;20055;-86
2023/09/14 03:24:20;;;;;;;3.90;1.30;;;;;;;;;;4963966;29;20190;-86
2023/09/14 03:26:48;;;;;;;5.22;1.65;;;;;;;;;;4948039;29;20066;-86
2023/09/14 03:29:17;;;;;;;5.80;1.60;;;;;;;;;;4954590;29;20051;-86
2023/09/14 03:32:00;;;;;;;5.78;1.50;;;;;;;;;;4973992;29;20065;-85
2023/09/14 03:34:44;;;;;;;5.95;1.58;;;;;;;;;;4951254;29;20063;-85
2023/09/14 03:41:12;;;;;;;4.88;1.90;;;;;;;;;;4963326;29;20034;-85
2023/09/14 03:43:41;;;;;;;5.35;1.42;;;;;;;;;;4945897;29;20085;-85
2023/09/14 03:49:30;;;;;;;2.58;0.95;;;;;;;;;;4970710;29;20057;-86
2023/09/14 03:51:58;;;;;;;7.63;1.88;;;;;;;;;;4959672;29;20119;-86
2023/09/14 03:54:25;;;;;;;7.53;1.83;;;;;;;;;;4952622;29;20065;-86
2023/09/14 03:56:52;;;;;;;3.72;1.60;;;;;;;;;;4951314;29;20074;-85
2023/09/14 03:59:19;;;;;;;10.25;1.60;;;;;;;;;;4950510;29;20061;-86
2023/09/14 04:05:18;;;;;;;8.13;1.52;;;;;;;;;;4967784;29;20038;-86
2023/09/14 04:07:45;;;;;;;7.72;1.60;;;;;;;;;;4951292;29;20062;-85
2023/09/14 04:10:15;;;;;;;7.32;2.00;;;;;;;;;;4950865;29;20051;-86
2023/09/14 04:12:44;;;;;;;4.43;1.42;;;;;;;;;;4951827;29;20142;-86
2023/09/14 04:15:12;;;;;;;4.47;1.52;;;;;;;;;;4951865;29;20078;-85
2023/09/14 04:17:42;;;;;;;4.07;1.70;;;;;;;;;;4953131;29;20059;-85
2023/09/14 04:20:09;;;;;;;7.72;1.63;;;;;;;;;;4953170;29;20052;-85
2023/09/14 04:22:37;;;;;;;6.35;1.77;;;;;;;;;;4950647;29;20063;-86
2023/09/14 04:25:16;;;;;;;7.65;1.70;;;;;;;;;;4971637;29;20075;-85
2023/09/14 04:27:53;;;;;;;9.90;1.95;;;;;;;;;;4974962;29;20058;-86
2023/09/14 04:38:11;;;;;;;2.80;1.38;;;;;;;;;;4913842;29;20067;-85
2023/09/14 04:40:43;;;;;;;5.57;1.70;;;;;;;;;;4918250;29;20063;-85
2023/09/14 04:43:12;;;;;;;6.15;1.42;;;;;;;;;;4896800;29;20065;-85
2023/09/14 04:45:39;;;;;;;7.30;1.85;;;;;;;;;;4908176;29;20064;-86
2023/09/14 04:48:08;;;;;;;5.72;2.58;;;;;;;;;;4893902;29;20080;-86
2023/09/14 04:50:35;;;;;;;5.82;1.90;;;;;;;;;;4893401;29;20048;-86
2023/09/14 04:53:03;;;;;;;7.47;1.77;;;;;;;;;;4891549;29;20052;-86
2023/09/14 04:55:30;;;;;;;4.82;1.40;;;;;;;;;;4944945;29;20059;-86
2023/09/14 04:58:00;;;;;;;6.38;2.13;;;;;;;;;;4948470;29;20316;-86
2023/09/14 05:00:28;;;;;;;7.00;1.92;;;;;;;;;;4949843;29;20090;-86
2023/09/14 05:16:23;;;;;;;7.03;1.50;;;;;;;;;;4966427;29;20086;-85
2023/09/14 05:18:51;;;;;;;5.43;2.00;;;;;;;;;;4963638;29;20099;-85
2023/09/14 05:21:18;;;;;;;6.13;1.77;;;;;;;;;;4946076;29;20110;-85
2023/09/14 05:33:49;;;;;;;6.40;1.75;;;;;;;;;;4961514;29;20131;-86
2023/09/14 05:36:17;;;;;;;3.53;1.75;;;;;;;;;;4944800;29;20419;-85
2023/09/14 05:38:46;;;;;;;5.22;1.85;;;;;;;;;;4945248;29;20082;-85
2023/09/14 05:41:14;;;;;;;7.82;2.13;;;;;;;;;;4961777;29;20066;-86
2023/09/14 05:57:09;;;;;;;11.80;2.00;;;;;;;;;;4962867;29;20042;-86
2023/09/14 05:59:37;;;;;;;5.63;1.60;;;;;;;;;;4946178;29;20051;-87
2023/09/14 06:02:07;;;;;;;5.72;1.75;;;;;;;;;;4961967;29;20062;-86
2023/09/14 06:07:57;;;;;;;5.45;1.48;;;;;;;;;;4961934;29;20058;-87
2023/09/14 06:10:27;;;;;;;3.03;1.33;;;;;;;;;;4946807;29;20111;-85
2023/09/14 06:12:56;;;;;;;8.10;2.17;;;;;;;;;;4944815;29;20051;-86
2023/09/14 06:25:32;;;;;;;7.07;2.15;;;;;;;;;;4975329;29;20127;-86
2023/09/14 06:32:14;;;;;;;7.85;2.92;;;;;;;;;;4917655;29;20140;-86
2023/09/14 06:38:43;;;;;;;8.77;2.95;;;;;;;;;;4975281;29;20045;-87
2023/09/14 06:44:30;;;;;;;11.25;2.53;;;;;;;;;;5161243;23;20075;-86
2023/09/14 06:47:31;;;;;;;8.27;1.95;;;;;;;;;;4957911;29;20058;-86
2023/09/14 07:30:14;;;;;;;9.13;3.63;;;;;;;;;;5831471;23;20030;-84
2023/09/14 07:33:00;;;;;;;11.15;3.63;;;;;;;;;;5298155;23;20076;-86
2023/09/14 07:38:45;;;;;;;12.83;2.80;;;;;;;;;;5229950;23;20047;-88
2023/09/14 08:13:52;;;;;;;9.38;2.70;;;;;;;;;;5320115;23;20022;-87
2023/09/14 08:40:09;;;;;;;9.27;1.70;;;;;;;;;;5534196;23;20035;-89
2023/09/14 08:43:12;;;;;;;3.75;1.50;;;;;;;;;;5116762;23;20062;-88
2023/09/14 08:45:53;;;;;;;9.10;1.55;;;;;;;;;;4966811;28;20112;-90
2023/09/14 08:51:10;;;;;;;7.23;1.27;;;;;;;;;;4980525;26;20039;-88
2023/09/14 08:53:52;;;;;;;10.18;2.22;;;;;;;;;;4980652;28;20554;-89
2023/09/14 09:09:36;;;;;;;6.60;1.87;;;;;;;;;;5534261;23;20087;-90
2023/09/14 09:12:58;;;;;;;3.72;0.80;;;;;;;;;;4979472;28;20486;-90
2023/09/14 09:28:32;;;;;;;3.88;0.80;;;;;;;;;;5405738;23;20106;-90
2023/09/14 09:31:17;;;;;;;3.15;0.60;;;;;;;;;;4979727;28;20042;-88
2023/09/14 09:44:06;;;;;;;2.65;0.57;;;;;;;;;;4980632;28;20026;-89
2023/09/14 09:55:30;;;;;;;4.70;1.10;;;;;;;;;;5034368;23;20047;-89
2023/09/14 09:58:41;;;;;;;9.00;2.13;;;;;;;;;;4960334;28;20047;-89
2023/09/14 10:07:13;;;;;;;1.97;0.60;;;;;;;;;;5144429;23;20487;-89
2023/09/14 10:43:41;;;;;;;8.60;1.57;;;;;;;;;;5797591;23;20035;-88
2023/09/14 11:16:33;;;;;;;9.68;1.05;;;;;;;;;;4871390;23;20041;-89
2023/09/14 11:19:56;;;;;;;3.33;0.90;;;;;;;;;;4979665;29;20083;-89
2023/09/14 12:21:32;;;;;;;3.93;0.70;;;;;;;;;;5805127;23;20508;-90
2023/09/14 12:24:19;;;;;;;4.45;1.02;;;;;;;;;;5172191;23;20045;-88
2023/09/14 12:27:04;;;;;;;2.90;0.70;;;;;;;;;;5102966;23;20037;-88
2023/09/14 12:29:54;;;;;;;4.32;0.85;;;;;;;;;;4966272;28;20038;-91
2023/09/14 12:40:36;;;;;;;6.22;0.90;;;;;;;;;;5346578;23;20024;-88
2023/09/14 12:43:54;;;;;;;6.40;1.05;;;;;;;;;;5081948;23;20045;-90
2023/09/14 12:49:26;;;;;;;5.10;0.60;;;;;;;;;;5370710;23;20051;-90
2023/09/14 12:52:31;;;;;;;2.45;1.27;;;;;;;;;;4959776;28;20365;-85
2023/09/14 12:57:51;;;;;;;6.80;0.60;;;;;;;;;;5182064;23;20066;-90
2023/09/14 13:31:51;;;;;;;3.85;0.60;;;;;;;;;;5261683;23;20330;-88
2023/09/14 13:45:23;;;;;;;7.20;0.75;;;;;;;;;;5527909;23;20035;-86
2023/09/14 13:48:09;;;;;;;4.30;0.90;;;;;;;;;;5110592;23;20118;-88
2023/09/14 13:53:27;;;;;;;7.30;0.90;;;;;;;;;;5160334;23;19942;-89
2023/09/14 13:58:48;;;;;;;3.57;0.93;;;;;;;;;;5513058;23;20101;-89
2023/09/14 14:01:48;;;;;;;2.75;0.45;;;;;;;;;;4959128;29;20034;-87
2023/09/14 14:17:42;;;;;;;3.45;0.88;;;;;;;;;;6016624;23;20026;-90
2023/09/14 14:20:40;;;;;;;;;;;;;;;;;;;;;
2023/09/14 14:31:14;;;;;;;2.73;0.87;;;;;;;;;;5293368;23;20043;-89
2023/09/14 14:44:21;;;;;;;1.67;0.67;;;;;;;;;;5754303;23;19949;-89
2023/09/14 14:47:26;;;;;;;1.30;0.60;;;;;;;;;;4959729;28;20043;-89
2023/09/14 14:53:48;;;;;;;2.97;0.70;;;;;;;;;;5132853;23;20039;-88
2023/09/14 14:56:28;;;;;;;;;;;;;;;;;;4925114;29;20071;-89
2023/09/14 15:10:26;;;;;;;5.93;1.10;;;;;;;;;;5868037;23;20027;-89
2023/09/14 15:13:10;;;;;;;2.53;0.88;;;;;;;;;;4963368;28;20033;-89
2023/09/14 15:22:03;;;;;;;;;;;;;;;;;;;;;
2023/09/14 15:24:45;;;;;;;2.75;0.90;;;;;;;;;;4959049;29;20031;-89
2023/09/14 15:33:27;;;;;;;4.50;0.87;;;;;;;;;;5336737;23;20081;-89
2023/09/14 15:36:17;;;;;;;3.88;1.30;;;;;;;;;;4962170;28;20047;-87
2023/09/14 15:39:05;;;;;;;3.03;0.80;;;;;;;;;;4979387;28;20067;-88
2023/09/14 15:45:43;;;;;;;2.58;0.70;;;;;;;;;;5058266;23;20046;-89
2023/09/14 15:51:40;;;;;;;2.35;0.75;;;;;;;;;;4993888;23;20059;-91
2023/09/14 16:00:45;;;;;;;6.15;1.48;;;;;;;;;;5279456;23;20088;-90
2023/09/14 16:03:32;;;;;;;1.20;0.57;;;;;;;;;;4962836;28;20083;-87
2023/09/14 16:15:40;;;;;;;3.87;1.67;;;;;;;;;;4978229;23;20054;-88
2023/09/14 16:18:39;;;;;;;2.05;0.82;;;;;;;;;;4955706;29;20056;-89
2023/09/14 16:21:57;;;;;;;4.32;1.02;;;;;;;;;;5051333;23;20042;-90
2023/09/14 16:24:41;;;;;;;8.85;0.70;;;;;;;;;;4914833;29;20055;-90
2023/09/14 16:27:32;;;;;;;5.15;1.00;;;;;;;;;;4886829;29;20054;-90
2023/09/14 16:30:40;;;;;;;2.75;0.60;;;;;;;;;;5261603;23;20193;-88
2023/09/14 16:33:29;;;;;;;3.15;0.80;;;;;;;;;;4967011;28;20054;-89
2023/09/14 16:36:18;;;;;;;3.25;0.88;;;;;;;;;;4966481;28;20099;-90
2023/09/14 16:39:29;;;;;;;4.18;1.23;;;;;;;;;;4922993;29;20056;-90
2023/09/14 16:45:22;;;;;;;4.22;0.80;;;;;;;;;;4923485;29;20049;-88
2023/09/14 16:48:11;;;;;;;3.67;1.05;;;;;;;;;;4921781;29;20085;-89
2023/09/14 16:56:42;;;;;;;6.63;0.98;;;;;;;;;;5104856;23;20074;-89
2023/09/14 16:59:27;;;;;;;4.38;0.98;;;;;;;;;;4966043;28;20043;-89
2023/09/14 17:12:22;;;;;;;6.95;1.27;;;;;;;;;;4951098;29;20400;-89
2023/09/14 17:18:11;;;;;;;5.50;1.20;;;;;;;;;;4948448;29;20407;-89
2023/09/14 17:20:38;;;;;;;3.15;1.15;;;;;;;;;;4962702;29;20041;-89
2023/09/14 17:23:08;;;;;;;2.88;1.00;;;;;;;;;;4947011;28;20034;-89
2023/09/14 17:25:38;;;;;;;2.90;1.05;;;;;;;;;;4955649;28;20059;-89
2023/09/14 17:34:49;;;;;;;4.68;1.02;;;;;;;;;;4975136;28;20110;-90
2023/09/14 17:37:21;;;;;;;8.15;0.95;;;;;;;;;;4952724;29;20075;-89
2023/09/14 17:39:53;;;;;;;3.85;1.20;;;;;;;;;;4947709;29;20080;-89
2023/09/14 17:45:44;;;;;;;3.15;0.90;;;;;;;;;;4966755;29;20053;-86
2023/09/14 17:48:12;;;;;;;4.88;1.30;;;;;;;;;;4944155;29;20051;-87
2023/09/14 17:51:21;;;;;;;3.13;1.13;;;;;;;;;;4944361;29;20423;-87
2023/09/14 17:53:48;;;;;;;3.50;1.20;;;;;;;;;;4943526;29;20066;-87
2023/09/14 17:59:48;;;;;;;2.75;1.15;;;;;;;;;;4959688;29;20055;-86
2023/09/14 18:02:15;;;;;;;4.65;1.60;;;;;;;;;;4946583;29;20043;-86
2023/09/14 18:11:40;;;;;;;4.07;1.23;;;;;;;;;;4965419;29;20279;-88
2023/09/14 18:14:07;;;;;;;11.15;1.90;;;;;;;;;;4943869;29;20113;-88
2023/09/14 18:16:36;;;;;;;4.78;1.20;;;;;;;;;;4945009;29;20047;-87
2023/09/14 18:29:19;;;;;;;3.38;1.45;;;;;;;;;;4961383;29;20122;-87
2023/09/14 18:31:47;;;;;;;3.80;1.40;;;;;;;;;;4944622;29;20049;-87
2023/09/14 18:34:17;;;;;;;2.50;1.38;;;;;;;;;;4959888;29;20055;-87
2023/09/14 18:36:44;;;;;;;6.13;1.88;;;;;;;;;;4942626;29;20447;-86
2023/09/14 18:46:47;;;;;;;2.90;1.38;;;;;;;;;;4960265;29;20042;-87
2023/09/14 18:49:13;;;;;;;5.70;1.77;;;;;;;;;;4942514;29;20073;-87
2023/09/14 18:51:43;;;;;;;3.00;1.95;;;;;;;;;;4942498;29;20048;-87
2023/09/14 18:54:11;;;;;;;6.05;1.85;;;;;;;;;;4945814;29;20129;-87
2023/09/14 18:56:39;;;;;;;8.43;2.08;;;;;;;;;;4941075;29;20165;-87
2023/09/14 19:02:36;;;;;;;6.53;2.03;;;;;;;;;;4960105;29;20555;-87
2023/09/14 19:05:03;;;;;;;8.65;2.28;;;;;;;;;;4944584;29;20059;-87
2023/09/14 19:07:30;;;;;;;10.50;2.80;;;;;;;;;;4948370;29;20079;-88
2023/09/14 19:09:57;;;;;;;5.80;2.28;;;;;;;;;;4944110;29;20049;-88
2023/09/14 19:22:30;;;;;;;3.30;1.90;;;;;;;;;;4962676;29;20035;-88
2023/09/14 19:25:00;;;;;;;8.65;2.50;;;;;;;;;;4944362;29;20047;-88
2023/09/14 19:27:27;;;;;;;3.65;2.15;;;;;;;;;;4945327;29;20051;-88
2023/09/14 19:40:00;;;;;;;7.70;2.80;;;;;;;;;;4959163;29;20034;-88
2023/09/14 19:42:27;;;;;;;5.43;3.08;;;;;;;;;;4945285;29;20130;-88
2023/09/14 19:44:58;;;;;;;7.35;2.55;;;;;;;;;;4945500;29;20110;-88
2023/09/14 19:47:26;;;;;;;8.07;3.30;;;;;;;;;;4945331;29;20093;-88
2023/09/14 19:49:54;;;;;;;6.05;2.63;;;;;;;;;;4945156;29;20330;-88
2023/09/14 19:59:25;;;;;;;7.10;3.00;;;;;;;;;;4951801;29;20345;-88
2023/09/14 20:01:52;;;;;;;8.55;3.40;;;;;;;;;;4963977;29;20122;-88
2023/09/14 20:04:23;;;;;;;6.45;2.85;;;;;;;;;;4962728;28;20240;-87
2023/09/14 20:06:50;;;;;;;8.10;3.45;;;;;;;;;;4945785;29;20050;-88
2023/09/14 20:12:40;;;;;;;5.22;2.78;;;;;;;;;;4961238;29;20042;-88
2023/09/14 20:18:30;;;;;;;13.30;5.95;;;;;;;;;;4963824;29;20042;-88
2023/09/14 20:21:05;;;;;;;6.57;4.00;;;;;;;;;;4945460;29;20063;-88
2023/09/14 20:23:34;;;;;;;9.05;4.10;;;;;;;;;;4946709;29;20055;-88
2023/09/14 20:29:29;;;;;;;8.35;3.50;;;;;;;;;;4965828;29;20046;-87
2023/09/14 20:31:58;;;;;;;11.63;4.57;;;;;;;;;;4948412;29;20118;-87
2023/09/14 20:37:49;;;;;;;6.85;3.60;;;;;;;;;;4974322;29;20258;-87
2023/09/14 20:40:23;;;;;;;5.75;3.78;;;;;;;;;;4953954;29;20078;-87
2023/09/14 20:42:51;;;;;;;6.72;4.15;;;;;;;;;;4949390;29;20128;-87
2023/09/14 20:45:18;;;;;;;10.75;4.78;;;;;;;;;;4948510;29;20289;-88
2023/09/14 20:47:49;;;;;;;8.18;4.32;;;;;;;;;;4947283;29;20469;-88
2023/09/14 20:57:00;;;;;;;8.55;3.95;;;;;;;;;;4965789;29;20042;-88
2023/09/14 20:59:28;;;;;;;9.68;4.45;;;;;;;;;;4948671;29;20063;-87
2023/09/14 21:01:58;;;;;;;8.45;4.35;;;;;;;;;;4951908;29;20061;-87
2023/09/14 21:04:28;;;;;;;10.43;4.25;;;;;;;;;;4953829;29;20106;-87
2023/09/14 21:06:56;;;;;;;8.50;4.00;;;;;;;;;;4951351;29;20130;-86
2023/09/14 21:09:23;;;;;;;9.63;4.93;;;;;;;;;;4952505;29;20119;-87
2023/09/14 21:15:15;;;;;;;6.45;4.60;;;;;;;;;;4970687;29;20041;-87
2023/09/14 21:17:45;;;;;;;10.57;4.40;;;;;;;;;;4950107;29;20075;-87
2023/09/14 21:20:13;;;;;;;8.95;4.05;;;;;;;;;;4953405;29;20055;-88
2023/09/14 21:22:40;;;;;;;8.90;4.25;;;;;;;;;;4966821;29;20122;-87
2023/09/14 21:25:08;;;;;;;8.25;4.05;;;;;;;;;;4951043;29;20065;-88
2023/09/14 21:34:26;;;;;;;7.90;4.57;;;;;;;;;;4967076;29;20057;-88
2023/09/14 21:36:54;;;;;;;7.45;4.85;;;;;;;;;;4952018;29;20053;-87
2023/09/14 21:39:21;;;;;;;8.68;4.70;;;;;;;;;;4953306;29;20103;-88
2023/09/14 21:41:51;;;;;;;5.60;4.70;;;;;;;;;;4950999;29;20047;-88
2023/09/14 21:44:19;;;;;;;13.98;4.60;;;;;;;;;;4950550;29;20057;-87
2023/09/14 21:50:17;;;;;;;10.00;4.93;;;;;;;;;;4967312;29;20132;-87
2023/09/14 21:52:45;;;;;;;10.65;6.20;;;;;;;;;;4968671;29;20051;-87
2023/09/14 21:55:12;;;;;;;10.70;5.95;;;;;;;;;;4951792;29;20118;-87
2023/09/14 21:57:44;;;;;;;7.55;5.55;;;;;;;;;;4953599;29;20055;-87
2023/09/14 22:03:47;;;;;;;15.43;5.90;;;;;;;;;;4967342;29;20085;-87
2023/09/14 22:06:18;;;;;;;8.98;5.68;;;;;;;;;;4952346;29;20051;-86
2023/09/14 22:08:52;;;;;;;6.97;5.13;;;;;;;;;;4952199;29;20078;-87
2023/09/14 22:11:19;;;;;;;9.05;5.43;;;;;;;;;;4949722;29;20055;-87
2023/09/14 22:20:42;;;;;;;15.07;5.53;;;;;;;;;;4966531;29;20450;-88
2023/09/14 22:23:10;;;;;;;7.80;5.53;;;;;;;;;;4950740;29;20047;-87
2023/09/14 22:25:38;;;;;;;8.35;5.63;;;;;;;;;;4952506;29;20082;-87
2023/09/14 22:28:06;;;;;;;9.15;5.38;;;;;;;;;;4950536;29;20058;-87
2023/09/14 22:30:34;;;;;;;7.40;5.60;;;;;;;;;;4950742;29;20138;-87
2023/09/14 22:36:41;;;;;;;11.93;5.82;;;;;;;;;;4966723;29;20038;-87
2023/09/14 22:39:09;;;;;;;7.47;5.15;;;;;;;;;;4949422;29;20055;-87
2023/09/14 22:41:37;;;;;;;11.15;4.85;;;;;;;;;;4966292;29;20115;-87
2023/09/14 22:44:06;;;;;;;10.35;5.68;;;;;;;;;;4966701;29;20055;-87
2023/09/14 22:53:23;;;;;;;9.40;5.57;;;;;;;;;;4966987;29;20030;-88
2023/09/14 22:55:50;;;;;;;12.43;5.82;;;;;;;;;;4950082;29;20059;-88
2023/09/14 22:58:17;;;;;;;10.50;5.65;;;;;;;;;;4952441;29;20055;-87
2023/09/14 23:00:45;;;;;;;10.07;5.60;;;;;;;;;;4931693;29;20094;-89
2023/09/14 23:03:15;;;;;;;8.70;5.93;;;;;;;;;;4934506;29;20220;-89
2023/09/14 23:05:42;;;;;;;8.90;5.57;;;;;;;;;;4951325;28;20051;-89
2023/09/14 23:11:44;;;;;;;7.43;4.78;;;;;;;;;;4947111;29;20038;-89
2023/09/14 23:14:12;;;;;;;7.55;5.00;;;;;;;;;;4950985;29;20035;-88
2023/09/14 23:19:47;;;;;;;10.32;5.43;;;;;;;;;;4948521;29;20039;-88
2023/09/14 23:22:18;;;;;;;14.00;6.15;;;;;;;;;;4948194;29;20142;-88
2023/09/14 23:24:50;;;;;;;5.88;4.75;;;;;;;;;;4931344;29;20107;-88
2023/09/14 23:34:12;;;;;;;12.05;7.10;;;;;;;;;;4951459;28;20042;-87
2023/09/14 23:36:41;;;;;;;9.13;6.20;;;;;;;;;;4958006;28;20043;-88
2023/09/14 23:39:09;;;;;;;11.38;7.25;;;;;;;;;;4941458;28;20050;-88
2023/09/14 23:41:36;;;;;;;14.02;8.35;;;;;;;;;;4957387;28;20051;-89
2023/09/14 23:44:08;;;;;;;14.95;7.70;;;;;;;;;;4941768;29;20055;-88
2023/09/14 23:46:40;;;;;;;14.82;7.85;;;;;;;;;;4939761;29;20048;-89
2023/09/14 23:52:42;;;;;;;9.73;6.72;;;;;;;;;;4953925;28;20074;-88
2023/09/14 23:55:10;;;;;;;14.20;6.47;;;;;;;;;;4932370;29;20052;-88
2023/09/14 23:57:37;;;;;;;11.38;7.30;;;;;;;;;;4948749;29;20123;-89
